sensor_id;sensor_type;location;lat;lon;timestamp;temperature;humidity
4052;DHT22;2040;50.924;11.604;2023-05-13T00:02:18;10.60;99.90
4052;DHT22;2040;50.924;11.604;2023-05-13T00:04:44;10.40;99.90
4052;DHT22;2040;50.924;11.604;2023-05-13T00:07:10;10.30;99.90
4052;DHT22;2040;50.924;11.604;2023-05-13T00:09:35;10.20;99.90
4052;DHT22;2040;50.924;11.604;2023-05-13T00:12:01;10.10;99.90
4052;DHT22;2040;50.924;11.604;2023-05-13T00:14:27;10.30;99.90
4052;DHT22;2040;50.924;11.604;2023-05-13T00:16:53;10.50;99.90
4052;DHT22;2040;50.924;11.604;2023-05-13T00:19:19;10.40;99.90
4052;DHT22;2040;50.924;11.604;2023-05-13T00:21:45;10.50;99.90
4052;DHT22;2040;50.924;11.604;2023-05-13T00:24:10;10.40;99.90
4052;DHT22;2040;50.924;11.604;2023-05-13T00:26:36;10.50;99.90
4052;DHT22;2040;50.924;11.604;2023-05-13T00:29:01;10.40;99.90
4052;DHT22;2040;50.924;11.604;2023-05-13T00:31:27;10.10;99.90
4052;DHT22;2040;50.924;11.604;2023-05-13T00:33:52;10.00;99.90
4052;DHT22;2040;50.924;11.604;2023-05-13T00:36:18;10.10;99.90
4052;DHT22;2040;50.924;11.604;2023-05-13T00:38:43;10.30;99.90
4052;DHT22;2040;50.924;11.604;2023-05-13T00:41:09;10.30;99.90
4052;DHT22;2040;50.924;11.604;2023-05-13T00:43:36;10.30;99.90
4052;DHT22;2040;50.924;11.604;2023-05-13T00:46:01;10.30;99.90
4052;DHT22;2040;50.924;11.604;2023-05-13T00:48:27;9.90;99.90
4052;DHT22;2040;50.924;11.604;2023-05-13T00:50:52;9.70;99.90
4052;DHT22;2040;50.924;11.604;2023-05-13T00:53:18;9.30;99.90
4052;DHT22;2040;50.924;11.604;2023-05-13T00:55:45;9.20;99.90
4052;DHT22;2040;50.924;11.604;2023-05-13T00:58:11;9.20;99.90
4052;DHT22;2040;50.924;11.604;2023-05-13T01:00:44;9.00;99.90
4052;DHT22;2040;50.924;11.604;2023-05-13T01:03:21;9.00;99.90
4052;DHT22;2040;50.924;11.604;2023-05-13T01:08:31;8.80;99.90
4052;DHT22;2040;50.924;11.604;2023-05-13T01:11:05;8.80;99.90
4052;DHT22;2040;50.924;11.604;2023-05-13T01:13:35;8.80;99.90
4052;DHT22;2040;50.924;11.604;2023-05-13T01:16:13;8.80;99.90
4052;DHT22;2040;50.924;11.604;2023-05-13T01:18:43;8.90;99.90
4052;DHT22;2040;50.924;11.604;2023-05-13T01:21:10;8.90;99.90
4052;DHT22;2040;50.924;11.604;2023-05-13T01:23:36;8.90;99.90
4052;DHT22;2040;50.924;11.604;2023-05-13T01:26:01;8.90;99.90
4052;DHT22;2040;50.924;11.604;2023-05-13T01:28:27;8.80;99.90
4052;DHT22;2040;50.924;11.604;2023-05-13T01:30:53;8.80;99.90
4052;DHT22;2040;50.924;11.604;2023-05-13T01:33:21;8.70;99.90
4052;DHT22;2040;50.924;11.604;2023-05-13T01:35:47;8.70;99.90
4052;DHT22;2040;50.924;11.604;2023-05-13T01:38:13;8.70;99.90
4052;DHT22;2040;50.924;11.604;2023-05-13T01:40:40;8.70;99.90
4052;DHT22;2040;50.924;11.604;2023-05-13T01:43:06;8.70;99.90
4052;DHT22;2040;50.924;11.604;2023-05-13T01:45:31;8.80;99.90
4052;DHT22;2040;50.924;11.604;2023-05-13T01:47:58;8.90;99.90
4052;DHT22;2040;50.924;11.604;2023-05-13T01:50:24;8.80;99.90
4052;DHT22;2040;50.924;11.604;2023-05-13T01:52:49;9.10;99.90
4052;DHT22;2040;50.924;11.604;2023-05-13T01:55:15;9.30;99.90
4052;DHT22;2040;50.924;11.604;2023-05-13T01:57:40;9.00;99.90
4052;DHT22;2040;50.924;11.604;2023-05-13T02:00:06;8.80;99.90
4052;DHT22;2040;50.924;11.604;2023-05-13T02:02:32;8.80;99.90
4052;DHT22;2040;50.924;11.604;2023-05-13T02:04:58;8.70;99.90
4052;DHT22;2040;50.924;11.604;2023-05-13T02:07:23;8.70;99.90
4052;DHT22;2040;50.924;11.604;2023-05-13T02:09:49;8.70;99.90
4052;DHT22;2040;50.924;11.604;2023-05-13T02:12:15;8.70;99.90
4052;DHT22;2040;50.924;11.604;2023-05-13T02:14:40;8.80;99.90
4052;DHT22;2040;50.924;11.604;2023-05-13T02:17:06;8.90;99.90
4052;DHT22;2040;50.924;11.604;2023-05-13T02:19:32;9.10;99.90
4052;DHT22;2040;50.924;11.604;2023-05-13T02:21:57;9.00;99.90
4052;DHT22;2040;50.924;11.604;2023-05-13T02:24:23;9.00;99.90
4052;DHT22;2040;50.924;11.604;2023-05-13T02:26:48;9.10;99.90
4052;DHT22;2040;50.924;11.604;2023-05-13T02:29:14;9.10;99.90
4052;DHT22;2040;50.924;11.604;2023-05-13T02:31:40;9.20;99.90
4052;DHT22;2040;50.924;11.604;2023-05-13T02:34:07;9.00;99.90
4052;DHT22;2040;50.924;11.604;2023-05-13T02:36:33;8.90;99.90
4052;DHT22;2040;50.924;11.604;2023-05-13T02:38:58;8.90;99.90
4052;DHT22;2040;50.924;11.604;2023-05-13T02:41:24;8.80;99.90
4052;DHT22;2040;50.924;11.604;2023-05-13T02:43:49;8.80;99.90
4052;DHT22;2040;50.924;11.604;2023-05-13T02:46:15;8.90;99.90
4052;DHT22;2040;50.924;11.604;2023-05-13T02:48:40;9.10;99.90
4052;DHT22;2040;50.924;11.604;2023-05-13T02:51:06;9.00;99.90
4052;DHT22;2040;50.924;11.604;2023-05-13T02:53:31;9.00;99.90
4052;DHT22;2040;50.924;11.604;2023-05-13T02:55:57;9.00;99.90
4052;DHT22;2040;50.924;11.604;2023-05-13T02:58:23;8.90;99.90
4052;DHT22;2040;50.924;11.604;2023-05-13T03:00:49;8.90;99.90
4052;DHT22;2040;50.924;11.604;2023-05-13T03:03:14;8.80;99.90
4052;DHT22;2040;50.924;11.604;2023-05-13T03:05:40;8.80;99.90
4052;DHT22;2040;50.924;11.604;2023-05-13T03:08:06;8.80;99.90
4052;DHT22;2040;50.924;11.604;2023-05-13T03:10:31;8.80;99.90
4052;DHT22;2040;50.924;11.604;2023-05-13T03:12:57;8.80;99.90
4052;DHT22;2040;50.924;11.604;2023-05-13T03:15:22;8.80;99.90
4052;DHT22;2040;50.924;11.604;2023-05-13T03:17:48;8.80;99.90
4052;DHT22;2040;50.924;11.604;2023-05-13T03:20:13;8.80;99.90
4052;DHT22;2040;50.924;11.604;2023-05-13T03:22:39;8.70;99.90
4052;DHT22;2040;50.924;11.604;2023-05-13T03:25:05;8.60;99.90
4052;DHT22;2040;50.924;11.604;2023-05-13T03:27:31;8.60;99.90
4052;DHT22;2040;50.924;11.604;2023-05-13T03:29:56;8.60;99.90
4052;DHT22;2040;50.924;11.604;2023-05-13T03:32:22;8.60;99.90
4052;DHT22;2040;50.924;11.604;2023-05-13T03:34:49;8.50;99.90
4052;DHT22;2040;50.924;11.604;2023-05-13T03:37:15;8.60;99.90
4052;DHT22;2040;50.924;11.604;2023-05-13T03:39:41;8.70;99.90
4052;DHT22;2040;50.924;11.604;2023-05-13T03:42:07;9.00;99.90
4052;DHT22;2040;50.924;11.604;2023-05-13T03:44:32;9.40;99.90
4052;DHT22;2040;50.924;11.604;2023-05-13T03:46:58;9.60;99.90
4052;DHT22;2040;50.924;11.604;2023-05-13T03:49:23;9.60;99.90
4052;DHT22;2040;50.924;11.604;2023-05-13T03:51:49;9.70;99.90
4052;DHT22;2040;50.924;11.604;2023-05-13T03:54:14;9.70;99.90
4052;DHT22;2040;50.924;11.604;2023-05-13T03:56:40;9.50;99.90
4052;DHT22;2040;50.924;11.604;2023-05-13T03:59:05;9.30;99.90
4052;DHT22;2040;50.924;11.604;2023-05-13T04:01:31;9.20;99.90
4052;DHT22;2040;50.924;11.604;2023-05-13T04:03:56;9.10;99.90
4052;DHT22;2040;50.924;11.604;2023-05-13T04:06:22;9.00;99.90
4052;DHT22;2040;50.924;11.604;2023-05-13T04:08:47;9.00;99.90
4052;DHT22;2040;50.924;11.604;2023-05-13T04:11:14;8.90;99.90
4052;DHT22;2040;50.924;11.604;2023-05-13T04:13:39;8.90;99.90
4052;DHT22;2040;50.924;11.604;2023-05-13T04:16:05;8.90;99.90
4052;DHT22;2040;50.924;11.604;2023-05-13T04:18:32;8.70;99.90
4052;DHT22;2040;50.924;11.604;2023-05-13T04:20:58;8.70;99.90
4052;DHT22;2040;50.924;11.604;2023-05-13T04:23:23;8.70;99.90
4052;DHT22;2040;50.924;11.604;2023-05-13T04:25:50;8.70;99.90
4052;DHT22;2040;50.924;11.604;2023-05-13T04:28:17;8.70;99.90
4052;DHT22;2040;50.924;11.604;2023-05-13T04:30:43;8.70;99.90
4052;DHT22;2040;50.924;11.604;2023-05-13T04:33:08;8.60;99.90
4052;DHT22;2040;50.924;11.604;2023-05-13T04:35:34;8.70;99.90
4052;DHT22;2040;50.924;11.604;2023-05-13T04:37:59;8.80;99.90
4052;DHT22;2040;50.924;11.604;2023-05-13T04:40:25;8.90;99.90
4052;DHT22;2040;50.924;11.604;2023-05-13T04:42:50;9.00;99.90
4052;DHT22;2040;50.924;11.604;2023-05-13T04:45:19;9.00;99.90
4052;DHT22;2040;50.924;11.604;2023-05-13T04:47:45;9.10;99.90
4052;DHT22;2040;50.924;11.604;2023-05-13T04:50:10;9.20;99.90
4052;DHT22;2040;50.924;11.604;2023-05-13T04:52:36;9.40;99.90
4052;DHT22;2040;50.924;11.604;2023-05-13T04:55:02;9.70;99.90
4052;DHT22;2040;50.924;11.604;2023-05-13T04:57:27;9.80;99.90
4052;DHT22;2040;50.924;11.604;2023-05-13T04:59:53;9.80;99.90
4052;DHT22;2040;50.924;11.604;2023-05-13T05:02:18;9.80;99.90
4052;DHT22;2040;50.924;11.604;2023-05-13T05:04:44;9.80;99.90
4052;DHT22;2040;50.924;11.604;2023-05-13T05:07:09;9.80;99.90
4052;DHT22;2040;50.924;11.604;2023-05-13T05:09:35;9.70;99.90
4052;DHT22;2040;50.924;11.604;2023-05-13T05:12:00;9.60;99.90
4052;DHT22;2040;50.924;11.604;2023-05-13T05:14:26;9.60;99.90
4052;DHT22;2040;50.924;11.604;2023-05-13T05:16:51;9.50;99.90
4052;DHT22;2040;50.924;11.604;2023-05-13T05:19:17;9.40;99.90
4052;DHT22;2040;50.924;11.604;2023-05-13T05:21:49;9.40;99.90
4052;DHT22;2040;50.924;11.604;2023-05-13T05:24:14;9.40;99.90
4052;DHT22;2040;50.924;11.604;2023-05-13T05:26:40;9.50;99.90
4052;DHT22;2040;50.924;11.604;2023-05-13T05:29:05;9.50;99.90
4052;DHT22;2040;50.924;11.604;2023-05-13T05:31:31;9.60;99.90
4052;DHT22;2040;50.924;11.604;2023-05-13T05:33:56;9.70;99.90
4052;DHT22;2040;50.924;11.604;2023-05-13T05:36:23;9.70;99.90
4052;DHT22;2040;50.924;11.604;2023-05-13T05:38:49;9.90;99.90
4052;DHT22;2040;50.924;11.604;2023-05-13T05:41:15;9.90;99.90
4052;DHT22;2040;50.924;11.604;2023-05-13T05:43:40;10.10;99.90
4052;DHT22;2040;50.924;11.604;2023-05-13T05:46:06;10.10;99.90
4052;DHT22;2040;50.924;11.604;2023-05-13T05:48:31;10.10;99.90
4052;DHT22;2040;50.924;11.604;2023-05-13T05:50:57;10.30;99.90
4052;DHT22;2040;50.924;11.604;2023-05-13T05:53:22;10.40;99.90
4052;DHT22;2040;50.924;11.604;2023-05-13T05:55:48;10.50;99.90
4052;DHT22;2040;50.924;11.604;2023-05-13T05:58:14;10.60;99.90
4052;DHT22;2040;50.924;11.604;2023-05-13T06:00:40;10.70;99.90
4052;DHT22;2040;50.924;11.604;2023-05-13T06:03:06;10.80;99.90
4052;DHT22;2040;50.924;11.604;2023-05-13T06:05:31;10.80;99.90
4052;DHT22;2040;50.924;11.604;2023-05-13T06:07:57;10.80;99.90
4052;DHT22;2040;50.924;11.604;2023-05-13T06:10:22;10.80;99.90
4052;DHT22;2040;50.924;11.604;2023-05-13T06:12:48;10.90;99.90
4052;DHT22;2040;50.924;11.604;2023-05-13T06:15:15;11.00;99.90
4052;DHT22;2040;50.924;11.604;2023-05-13T06:17:41;11.10;99.90
4052;DHT22;2040;50.924;11.604;2023-05-13T06:20:06;11.40;99.90
4052;DHT22;2040;50.924;11.604;2023-05-13T06:22:32;11.60;99.90
4052;DHT22;2040;50.924;11.604;2023-05-13T06:24:58;11.60;99.90
4052;DHT22;2040;50.924;11.604;2023-05-13T06:27:24;11.70;99.90
4052;DHT22;2040;50.924;11.604;2023-05-13T06:29:49;11.80;99.90
4052;DHT22;2040;50.924;11.604;2023-05-13T06:32:15;11.80;99.90
4052;DHT22;2040;50.924;11.604;2023-05-13T06:34:41;11.90;99.90
4052;DHT22;2040;50.924;11.604;2023-05-13T06:37:10;12.00;99.90
4052;DHT22;2040;50.924;11.604;2023-05-13T06:39:36;12.10;99.90
4052;DHT22;2040;50.924;11.604;2023-05-13T06:42:03;12.20;99.90
4052;DHT22;2040;50.924;11.604;2023-05-13T06:44:28;12.40;99.90
4052;DHT22;2040;50.924;11.604;2023-05-13T06:46:54;12.40;99.90
4052;DHT22;2040;50.924;11.604;2023-05-13T06:49:19;12.50;99.90
4052;DHT22;2040;50.924;11.604;2023-05-13T06:51:45;12.50;99.90
4052;DHT22;2040;50.924;11.604;2023-05-13T06:54:12;12.60;99.90
4052;DHT22;2040;50.924;11.604;2023-05-13T06:56:38;12.80;99.90
4052;DHT22;2040;50.924;11.604;2023-05-13T06:59:03;13.00;99.90
4052;DHT22;2040;50.924;11.604;2023-05-13T07:01:29;13.00;99.90
4052;DHT22;2040;50.924;11.604;2023-05-13T07:03:55;13.10;99.90
4052;DHT22;2040;50.924;11.604;2023-05-13T07:06:20;13.20;99.90
4052;DHT22;2040;50.924;11.604;2023-05-13T07:08:46;13.20;99.90
4052;DHT22;2040;50.924;11.604;2023-05-13T07:11:11;13.20;99.90
4052;DHT22;2040;50.924;11.604;2023-05-13T07:13:37;13.30;99.90
4052;DHT22;2040;50.924;11.604;2023-05-13T07:16:02;13.30;99.90
4052;DHT22;2040;50.924;11.604;2023-05-13T07:18:28;13.40;99.90
4052;DHT22;2040;50.924;11.604;2023-05-13T07:20:54;13.50;99.90
4052;DHT22;2040;50.924;11.604;2023-05-13T07:23:23;13.60;99.90
4052;DHT22;2040;50.924;11.604;2023-05-13T07:25:49;13.80;99.90
4052;DHT22;2040;50.924;11.604;2023-05-13T07:28:17;13.80;99.90
4052;DHT22;2040;50.924;11.604;2023-05-13T07:30:44;14.00;99.90
4052;DHT22;2040;50.924;11.604;2023-05-13T07:33:09;14.10;99.90
4052;DHT22;2040;50.924;11.604;2023-05-13T07:35:35;14.30;99.90
4052;DHT22;2040;50.924;11.604;2023-05-13T07:38:02;14.60;99.90
4052;DHT22;2040;50.924;11.604;2023-05-13T07:40:28;14.50;99.90
4052;DHT22;2040;50.924;11.604;2023-05-13T07:42:53;14.60;99.90
4052;DHT22;2040;50.924;11.604;2023-05-13T07:45:19;14.70;99.90
4052;DHT22;2040;50.924;11.604;2023-05-13T07:47:44;14.90;99.90
4052;DHT22;2040;50.924;11.604;2023-05-13T07:50:10;15.00;99.90
4052;DHT22;2040;50.924;11.604;2023-05-13T07:52:36;15.00;99.90
4052;DHT22;2040;50.924;11.604;2023-05-13T07:55:01;15.10;99.90
4052;DHT22;2040;50.924;11.604;2023-05-13T07:57:27;15.20;99.90
4052;DHT22;2040;50.924;11.604;2023-05-13T07:59:52;15.40;99.90
4052;DHT22;2040;50.924;11.604;2023-05-13T08:02:18;15.60;99.90
4052;DHT22;2040;50.924;11.604;2023-05-13T08:04:44;15.80;99.90
4052;DHT22;2040;50.924;11.604;2023-05-13T08:07:10;16.00;99.90
4052;DHT22;2040;50.924;11.604;2023-05-13T08:09:36;16.00;99.90
4052;DHT22;2040;50.924;11.604;2023-05-13T08:12:02;16.10;99.90
4052;DHT22;2040;50.924;11.604;2023-05-13T08:14:27;16.20;99.90
4052;DHT22;2040;50.924;11.604;2023-05-13T08:16:53;16.20;99.90
4052;DHT22;2040;50.924;11.604;2023-05-13T08:19:19;16.40;99.90
4052;DHT22;2040;50.924;11.604;2023-05-13T08:21:44;16.50;99.90
4052;DHT22;2040;50.924;11.604;2023-05-13T08:24:10;16.60;99.90
4052;DHT22;2040;50.924;11.604;2023-05-13T08:26:36;16.60;99.90
4052;DHT22;2040;50.924;11.604;2023-05-13T08:29:02;16.60;99.90
4052;DHT22;2040;50.924;11.604;2023-05-13T08:31:28;16.70;99.90
4052;DHT22;2040;50.924;11.604;2023-05-13T08:33:53;16.80;99.90
4052;DHT22;2040;50.924;11.604;2023-05-13T08:36:19;16.90;99.90
4052;DHT22;2040;50.924;11.604;2023-05-13T08:38:46;16.90;99.90
4052;DHT22;2040;50.924;11.604;2023-05-13T08:41:12;16.90;99.90
4052;DHT22;2040;50.924;11.604;2023-05-13T08:43:38;17.10;99.90
4052;DHT22;2040;50.924;11.604;2023-05-13T08:46:07;17.20;99.90
4052;DHT22;2040;50.924;11.604;2023-05-13T08:48:33;17.20;99.90
4052;DHT22;2040;50.924;11.604;2023-05-13T08:51:00;17.40;99.90
4052;DHT22;2040;50.924;11.604;2023-05-13T08:53:27;17.50;99.90
4052;DHT22;2040;50.924;11.604;2023-05-13T08:55:53;17.60;99.90
4052;DHT22;2040;50.924;11.604;2023-05-13T08:58:19;17.80;99.90
4052;DHT22;2040;50.924;11.604;2023-05-13T09:00:47;17.80;99.90
4052;DHT22;2040;50.924;11.604;2023-05-13T09:03:13;17.70;99.90
4052;DHT22;2040;50.924;11.604;2023-05-13T09:05:40;17.80;99.90
4052;DHT22;2040;50.924;11.604;2023-05-13T09:08:07;17.80;99.90
4052;DHT22;2040;50.924;11.604;2023-05-13T09:10:37;18.10;99.90
4052;DHT22;2040;50.924;11.604;2023-05-13T09:13:02;18.20;99.90
4052;DHT22;2040;50.924;11.604;2023-05-13T09:15:29;18.40;99.90
4052;DHT22;2040;50.924;11.604;2023-05-13T09:18:03;18.50;99.90
4052;DHT22;2040;50.924;11.604;2023-05-13T09:20:29;18.90;99.90
4052;DHT22;2040;50.924;11.604;2023-05-13T09:23:08;18.90;99.90
4052;DHT22;2040;50.924;11.604;2023-05-13T09:25:35;18.90;99.90
4052;DHT22;2040;50.924;11.604;2023-05-13T09:28:03;19.00;99.90
4052;DHT22;2040;50.924;11.604;2023-05-13T09:30:33;18.90;99.90
4052;DHT22;2040;50.924;11.604;2023-05-13T09:33:13;18.60;99.90
4052;DHT22;2040;50.924;11.604;2023-05-13T09:35:43;18.70;99.90
4052;DHT22;2040;50.924;11.604;2023-05-13T09:38:20;18.90;99.90
4052;DHT22;2040;50.924;11.604;2023-05-13T09:41:12;19.00;99.90
4052;DHT22;2040;50.924;11.604;2023-05-13T09:43:38;19.10;99.90
4052;DHT22;2040;50.924;11.604;2023-05-13T09:46:04;19.50;99.90
4052;DHT22;2040;50.924;11.604;2023-05-13T09:48:33;19.60;99.90
4052;DHT22;2040;50.924;11.604;2023-05-13T09:50:59;19.30;99.90
4052;DHT22;2040;50.924;11.604;2023-05-13T09:53:26;19.30;99.90
4052;DHT22;2040;50.924;11.604;2023-05-13T09:55:57;19.40;99.90
4052;DHT22;2040;50.924;11.604;2023-05-13T09:58:25;19.60;99.90
4052;DHT22;2040;50.924;11.604;2023-05-13T10:00:52;19.40;99.90
4052;DHT22;2040;50.924;11.604;2023-05-13T10:03:18;19.50;99.90
4052;DHT22;2040;50.924;11.604;2023-05-13T10:05:44;19.40;99.90
4052;DHT22;2040;50.924;11.604;2023-05-13T10:08:11;19.60;99.90
4052;DHT22;2040;50.924;11.604;2023-05-13T10:10:38;19.30;99.90
4052;DHT22;2040;50.924;11.604;2023-05-13T10:13:07;19.00;99.90
4052;DHT22;2040;50.924;11.604;2023-05-13T10:15:49;18.90;99.90
4052;DHT22;2040;50.924;11.604;2023-05-13T10:18:19;19.10;99.90
4052;DHT22;2040;50.924;11.604;2023-05-13T10:20:45;19.50;99.90
4052;DHT22;2040;50.924;11.604;2023-05-13T10:23:11;19.70;99.90
4052;DHT22;2040;50.924;11.604;2023-05-13T10:25:37;19.60;99.90
4052;DHT22;2040;50.924;11.604;2023-05-13T10:28:04;19.80;99.90
4052;DHT22;2040;50.924;11.604;2023-05-13T10:30:30;19.80;99.90
4052;DHT22;2040;50.924;11.604;2023-05-13T10:32:57;20.00;99.90
4052;DHT22;2040;50.924;11.604;2023-05-13T10:35:28;20.10;99.90
4052;DHT22;2040;50.924;11.604;2023-05-13T10:38:01;20.20;99.90
4052;DHT22;2040;50.924;11.604;2023-05-13T10:41:00;20.30;99.90
4052;DHT22;2040;50.924;11.604;2023-05-13T10:43:33;20.30;99.90
4052;DHT22;2040;50.924;11.604;2023-05-13T10:46:06;20.20;99.90
4052;DHT22;2040;50.924;11.604;2023-05-13T10:48:46;20.40;99.90
4052;DHT22;2040;50.924;11.604;2023-05-13T10:51:13;20.30;99.90
4052;DHT22;2040;50.924;11.604;2023-05-13T10:53:50;20.50;99.90
4052;DHT22;2040;50.924;11.604;2023-05-13T10:56:21;20.90;99.90
4052;DHT22;2040;50.924;11.604;2023-05-13T10:59:01;21.30;99.90
4052;DHT22;2040;50.924;11.604;2023-05-13T11:01:38;21.50;99.90
4052;DHT22;2040;50.924;11.604;2023-05-13T11:04:11;21.60;99.90
4052;DHT22;2040;50.924;11.604;2023-05-13T11:06:39;21.20;99.90
4052;DHT22;2040;50.924;11.604;2023-05-13T11:09:07;21.20;99.90
4052;DHT22;2040;50.924;11.604;2023-05-13T11:11:36;21.20;99.90
4052;DHT22;2040;50.924;11.604;2023-05-13T11:16:28;20.70;99.90
4052;DHT22;2040;50.924;11.604;2023-05-13T11:18:53;20.20;99.90
4052;DHT22;2040;50.924;11.604;2023-05-13T11:21:35;20.00;99.90
4052;DHT22;2040;50.924;11.604;2023-05-13T11:24:02;20.20;99.90
4052;DHT22;2040;50.924;11.604;2023-05-13T11:26:48;20.40;99.90
4052;DHT22;2040;50.924;11.604;2023-05-13T11:29:29;20.20;99.90
4052;DHT22;2040;50.924;11.604;2023-05-13T11:31:56;20.00;99.90
4052;DHT22;2040;50.924;11.604;2023-05-13T11:34:23;19.80;99.90
4052;DHT22;2040;50.924;11.604;2023-05-13T11:37:09;19.60;99.90
4052;DHT22;2040;50.924;11.604;2023-05-13T11:39:38;19.40;99.90
4052;DHT22;2040;50.924;11.604;2023-05-13T11:42:08;19.60;99.90
4052;DHT22;2040;50.924;11.604;2023-05-13T11:44:35;19.90;99.90
4052;DHT22;2040;50.924;11.604;2023-05-13T11:47:02;19.60;99.90
4052;DHT22;2040;50.924;11.604;2023-05-13T11:49:33;19.90;99.90
4052;DHT22;2040;50.924;11.604;2023-05-13T11:52:04;20.40;99.90
4052;DHT22;2040;50.924;11.604;2023-05-13T11:54:30;20.20;99.90
4052;DHT22;2040;50.924;11.604;2023-05-13T11:56:55;20.20;99.90
4052;DHT22;2040;50.924;11.604;2023-05-13T11:59:21;20.10;99.90
4052;DHT22;2040;50.924;11.604;2023-05-13T12:02:02;19.90;99.90
4052;DHT22;2040;50.924;11.604;2023-05-13T12:04:29;19.80;99.90
4052;DHT22;2040;50.924;11.604;2023-05-13T12:06:55;19.60;99.90
4052;DHT22;2040;50.924;11.604;2023-05-13T12:09:22;19.40;99.90
4052;DHT22;2040;50.924;11.604;2023-05-13T12:11:49;19.40;99.90
4052;DHT22;2040;50.924;11.604;2023-05-13T12:14:16;19.90;99.90
4052;DHT22;2040;50.924;11.604;2023-05-13T12:16:43;19.70;99.90
4052;DHT22;2040;50.924;11.604;2023-05-13T12:19:09;19.20;99.90
4052;DHT22;2040;50.924;11.604;2023-05-13T12:21:36;18.90;99.90
4052;DHT22;2040;50.924;11.604;2023-05-13T12:24:24;18.90;99.90
4052;DHT22;2040;50.924;11.604;2023-05-13T12:26:49;18.80;99.90
4052;DHT22;2040;50.924;11.604;2023-05-13T12:29:15;18.80;99.90
4052;DHT22;2040;50.924;11.604;2023-05-13T12:31:42;18.70;99.90
4052;DHT22;2040;50.924;11.604;2023-05-13T12:34:08;18.60;99.90
4052;DHT22;2040;50.924;11.604;2023-05-13T12:36:37;18.50;99.90
4052;DHT22;2040;50.924;11.604;2023-05-13T12:39:05;18.50;99.90
4052;DHT22;2040;50.924;11.604;2023-05-13T12:41:39;18.40;99.90
4052;DHT22;2040;50.924;11.604;2023-05-13T12:44:14;18.30;99.90
4052;DHT22;2040;50.924;11.604;2023-05-13T12:46:50;18.30;99.90
4052;DHT22;2040;50.924;11.604;2023-05-13T12:49:16;18.40;99.90
4052;DHT22;2040;50.924;11.604;2023-05-13T12:51:42;18.70;99.90
4052;DHT22;2040;50.924;11.604;2023-05-13T12:54:09;18.70;99.90
4052;DHT22;2040;50.924;11.604;2023-05-13T12:56:36;18.70;99.90
4052;DHT22;2040;50.924;11.604;2023-05-13T12:59:02;18.50;99.90
4052;DHT22;2040;50.924;11.604;2023-05-13T13:01:27;18.50;99.90
4052;DHT22;2040;50.924;11.604;2023-05-13T13:03:53;18.40;99.90
4052;DHT22;2040;50.924;11.604;2023-05-13T13:06:18;18.40;99.90
4052;DHT22;2040;50.924;11.604;2023-05-13T13:08:44;18.40;99.90
4052;DHT22;2040;50.924;11.604;2023-05-13T13:11:10;18.30;99.90
4052;DHT22;2040;50.924;11.604;2023-05-13T13:13:39;18.30;99.90
4052;DHT22;2040;50.924;11.604;2023-05-13T13:16:04;18.00;99.90
4052;DHT22;2040;50.924;11.604;2023-05-13T13:18:30;18.20;99.90
4052;DHT22;2040;50.924;11.604;2023-05-13T13:20:56;18.20;99.90
4052;DHT22;2040;50.924;11.604;2023-05-13T13:23:21;18.40;99.90
4052;DHT22;2040;50.924;11.604;2023-05-13T13:25:47;18.50;99.90
4052;DHT22;2040;50.924;11.604;2023-05-13T13:28:13;18.60;99.90
4052;DHT22;2040;50.924;11.604;2023-05-13T13:30:38;18.60;99.90
4052;DHT22;2040;50.924;11.604;2023-05-13T13:33:10;18.60;99.90
4052;DHT22;2040;50.924;11.604;2023-05-13T13:35:35;18.20;99.90
4052;DHT22;2040;50.924;11.604;2023-05-13T13:38:01;17.40;99.90
4052;DHT22;2040;50.924;11.604;2023-05-13T13:40:33;17.00;99.90
4052;DHT22;2040;50.924;11.604;2023-05-13T13:43:01;16.50;99.90
4052;DHT22;2040;50.924;11.604;2023-05-13T13:45:26;16.40;99.90
4052;DHT22;2040;50.924;11.604;2023-05-13T13:47:52;16.20;99.90
4052;DHT22;2040;50.924;11.604;2023-05-13T13:50:17;16.30;99.90
4052;DHT22;2040;50.924;11.604;2023-05-13T13:52:43;16.50;99.90
4052;DHT22;2040;50.924;11.604;2023-05-13T13:55:08;17.20;99.90
4052;DHT22;2040;50.924;11.604;2023-05-13T13:57:37;17.80;99.90
4052;DHT22;2040;50.924;11.604;2023-05-13T14:00:03;18.40;99.90
4052;DHT22;2040;50.924;11.604;2023-05-13T14:02:29;18.70;99.90
4052;DHT22;2040;50.924;11.604;2023-05-13T14:04:54;18.90;99.90
4052;DHT22;2040;50.924;11.604;2023-05-13T14:07:20;19.20;99.90
4052;DHT22;2040;50.924;11.604;2023-05-13T14:09:46;19.20;99.90
4052;DHT22;2040;50.924;11.604;2023-05-13T14:12:11;19.30;99.90
4052;DHT22;2040;50.924;11.604;2023-05-13T14:14:37;19.30;99.90
4052;DHT22;2040;50.924;11.604;2023-05-13T14:17:02;19.40;99.90
4052;DHT22;2040;50.924;11.604;2023-05-13T14:19:28;19.80;99.90
4052;DHT22;2040;50.924;11.604;2023-05-13T14:21:53;20.30;99.90
4052;DHT22;2040;50.924;11.604;2023-05-13T14:24:19;20.80;99.90
4052;DHT22;2040;50.924;11.604;2023-05-13T14:26:44;21.20;99.90
4052;DHT22;2040;50.924;11.604;2023-05-13T14:29:10;21.40;99.90
4052;DHT22;2040;50.924;11.604;2023-05-13T14:31:35;21.10;99.90
4052;DHT22;2040;50.924;11.604;2023-05-13T14:34:01;21.20;99.90
4052;DHT22;2040;50.924;11.604;2023-05-13T14:36:27;21.40;99.90
4052;DHT22;2040;50.924;11.604;2023-05-13T14:38:53;21.40;99.90
4052;DHT22;2040;50.924;11.604;2023-05-13T14:41:18;21.40;99.90
4052;DHT22;2040;50.924;11.604;2023-05-13T14:43:45;21.60;99.90
4052;DHT22;2040;50.924;11.604;2023-05-13T14:46:11;21.90;99.90
4052;DHT22;2040;50.924;11.604;2023-05-13T14:48:37;21.80;99.90
4052;DHT22;2040;50.924;11.604;2023-05-13T14:51:03;22.10;99.90
4052;DHT22;2040;50.924;11.604;2023-05-13T14:53:28;22.20;99.90
4052;DHT22;2040;50.924;11.604;2023-05-13T14:55:54;22.00;99.90
4052;DHT22;2040;50.924;11.604;2023-05-13T14:58:19;21.70;99.90
4052;DHT22;2040;50.924;11.604;2023-05-13T15:00:45;21.70;99.90
4052;DHT22;2040;50.924;11.604;2023-05-13T15:03:11;21.90;99.90
4052;DHT22;2040;50.924;11.604;2023-05-13T15:05:36;21.80;99.90
4052;DHT22;2040;50.924;11.604;2023-05-13T15:08:02;21.90;99.90
4052;DHT22;2040;50.924;11.604;2023-05-13T15:10:27;22.00;99.90
4052;DHT22;2040;50.924;11.604;2023-05-13T15:12:53;22.30;99.90
4052;DHT22;2040;50.924;11.604;2023-05-13T15:15:19;21.60;99.90
4052;DHT22;2040;50.924;11.604;2023-05-13T15:17:44;21.50;99.90
4052;DHT22;2040;50.924;11.604;2023-05-13T15:20:10;21.10;99.90
4052;DHT22;2040;50.924;11.604;2023-05-13T15:22:36;20.80;99.90
4052;DHT22;2040;50.924;11.604;2023-05-13T15:25:02;20.20;99.90
4052;DHT22;2040;50.924;11.604;2023-05-13T15:27:27;19.70;99.90
4052;DHT22;2040;50.924;11.604;2023-05-13T15:29:53;19.50;99.90
4052;DHT22;2040;50.924;11.604;2023-05-13T15:32:19;19.50;99.90
4052;DHT22;2040;50.924;11.604;2023-05-13T15:34:44;19.50;99.90
4052;DHT22;2040;50.924;11.604;2023-05-13T15:37:10;19.60;99.90
4052;DHT22;2040;50.924;11.604;2023-05-13T15:39:35;19.70;99.90
4052;DHT22;2040;50.924;11.604;2023-05-13T15:42:01;19.90;99.90
4052;DHT22;2040;50.924;11.604;2023-05-13T15:44:26;19.90;99.90
4052;DHT22;2040;50.924;11.604;2023-05-13T15:46:52;19.80;99.90
4052;DHT22;2040;50.924;11.604;2023-05-13T15:49:17;19.60;99.90
4052;DHT22;2040;50.924;11.604;2023-05-13T15:51:43;19.50;99.90
4052;DHT22;2040;50.924;11.604;2023-05-13T15:54:08;19.50;99.90